PWSweather.com
Personal Weather Stations
Station Observations
DAVIS2016
WorthingGB

WorthingGB

Lat: 50.8130266, Lon: -0.3832443000000012

Elevation: 34.8

Station Type: davis vantage vue 6250

High Low Average
Temperature 56.4°F13.6°C 41.6°F5.3°C 50.9°F10.5°C
Dew Point 52.3°F11.3°C 36.8°F2.7°C 47.6°F8.7°C
Winds 6.0 mph 9.7 kmh Calm Calm 2.0 mph SW3.2 kmh SW
Wind Gusts 15.0 mph24.1 kmh -- 7.0 mph11.3 kmh
Humidity 95% 80% 89%
Pressure 29.96 in1014.6 mb 29.60 in1002.4 mb -
Precipitation 0.27 in6.9 mm - -
Hour Temp Dew Point Humidity Winds Wind Gusts Pressure Precip Precip Rate Daily Precip Total
12:00 AM 53.6°F12.0°C 51.6°F10.9°C 93% 6.0 mph SSE9.7 kmh SSE 13.0 mph20.9 kmh 29.63 in1003.4 mb 0.07 in1.8 mm 0.00 in0.0 mm 0.07 in1.8 mm
12:15 AM 53.6°F12.0°C 51.3°F10.7°C 92% 6.0 mph SSE9.7 kmh SSE 11.0 mph17.7 kmh 29.63 in1003.4 mb 0.01 in0.3 mm 0.00 in0.0 mm 0.07 in1.8 mm
12:30 AM 53.6°F12.0°C 51.3°F10.7°C 92% 6.0 mph SSE9.7 kmh SSE 12.0 mph19.3 kmh 29.63 in1003.4 mb 0.01 in0.3 mm 0.00 in0.0 mm 0.07 in1.8 mm
12:45 AM 53.7°F12.1°C 51.1°F10.6°C 91% 5.0 mph S8.0 kmh S 11.0 mph17.7 kmh 29.63 in1003.4 mb 0.00 in0.0 mm 0.00 in0.0 mm 0.07 in1.8 mm
01:00 AM 53.8°F12.1°C 51.2°F10.7°C 91% 5.0 mph S8.0 kmh S 10.0 mph16.1 kmh 29.62 in1003.0 mb 0.00 in0.0 mm 0.00 in0.0 mm 0.07 in1.8 mm
01:15 AM 53.8°F12.1°C 51.2°F10.7°C 91% 4.0 mph S6.4 kmh S 9.0 mph14.5 kmh 29.62 in1003.0 mb 0.01 in0.3 mm 0.04 in1.0 mm 0.01 in0.3 mm
01:30 AM 53.9°F12.2°C 51.3°F10.7°C 91% 5.0 mph S8.0 kmh S 9.0 mph14.5 kmh 29.62 in1003.0 mb 0.01 in0.3 mm 0.00 in0.0 mm 0.01 in0.3 mm
01:45 AM 53.8°F12.1°C 51.2°F10.7°C 91% 3.0 mph S4.8 kmh S 7.0 mph11.3 kmh 29.62 in1003.0 mb 0.01 in0.3 mm 0.00 in0.0 mm 0.01 in0.3 mm
02:00 AM 53.8°F12.1°C 51.2°F10.7°C 91% 3.0 mph S4.8 kmh S 7.0 mph11.3 kmh 29.62 in1003.0 mb 0.01 in0.3 mm 0.00 in0.0 mm 0.01 in0.3 mm
02:15 AM 53.9°F12.2°C 51.3°F10.7°C 91% 3.0 mph S4.8 kmh S 7.0 mph11.3 kmh 29.62 in1003.0 mb 0.00 in0.0 mm 0.00 in0.0 mm 0.01 in0.3 mm
02:30 AM 53.9°F12.2°C 51.3°F10.7°C 91% 3.0 mph SW4.8 kmh SW 8.0 mph12.9 kmh 29.61 in1002.7 mb 0.00 in0.0 mm 0.00 in0.0 mm 0.01 in0.3 mm
02:45 AM 53.7°F12.1°C 51.4°F10.8°C 92% 2.0 mph SSW3.2 kmh SSW 6.0 mph9.7 kmh 29.61 in1002.7 mb 0.01 in0.3 mm 0.04 in1.0 mm 0.02 in0.5 mm
03:00 AM 53.6°F12.0°C 51.3°F10.7°C 92% 1.0 mph S1.6 kmh S 3.0 mph4.8 kmh 29.60 in1002.4 mb 0.01 in0.3 mm 0.00 in0.0 mm 0.02 in0.5 mm
03:15 AM 53.7°F12.1°C 51.4°F10.8°C 92% 2.0 mph SSW3.2 kmh SSW 4.0 mph6.4 kmh 29.60 in1002.4 mb 0.01 in0.3 mm 0.00 in0.0 mm 0.02 in0.5 mm
03:30 AM 53.4°F11.9°C 51.1°F10.6°C 92% 4.0 mph SW6.4 kmh SW 10.0 mph16.1 kmh 29.60 in1002.4 mb 0.02 in0.5 mm 0.04 in1.0 mm 0.03 in0.8 mm
03:45 AM 53.0°F11.7°C 51.0°F10.6°C 93% 1.0 mph WSW1.6 kmh WSW 5.0 mph8.0 kmh 29.60 in1002.4 mb 0.06 in1.5 mm 0.16 in4.1 mm 0.08 in2.0 mm
04:00 AM 52.8°F11.6°C 51.1°F10.6°C 94% 1.0 mph WSW1.6 kmh WSW 4.0 mph6.4 kmh 29.60 in1002.4 mb 0.20 in5.1 mm 0.19 in4.8 mm 0.21 in5.3 mm
04:15 AM 52.7°F11.5°C 51.0°F10.6°C 94% Calm Calm 3.0 mph4.8 kmh 29.60 in1002.4 mb 0.22 in5.6 mm 0.08 in2.0 mm 0.24 in6.1 mm
04:30 AM 52.6°F11.4°C 51.2°F10.7°C 95% Calm Calm -- 29.60 in1002.4 mb 0.21 in5.3 mm 0.00 in0.0 mm 0.24 in6.1 mm
04:45 AM 52.4°F11.3°C 51.0°F10.6°C 95% Calm Calm -- 29.60 in1002.4 mb 0.16 in4.1 mm 0.00 in0.0 mm 0.24 in6.1 mm
05:00 AM 52.4°F11.3°C 51.0°F10.6°C 95% Calm Calm 1.0 mph1.6 kmh 29.60 in1002.4 mb 0.03 in0.8 mm 0.00 in0.0 mm 0.25 in6.4 mm
05:15 AM 52.2°F11.2°C 50.8°F10.4°C 95% Calm Calm 2.0 mph3.2 kmh 29.60 in1002.4 mb 0.02 in0.5 mm 0.00 in0.0 mm 0.26 in6.6 mm
05:30 AM 51.9°F11.1°C 50.5°F10.3°C 95% Calm Calm 1.0 mph1.6 kmh 29.60 in1002.4 mb 0.02 in0.5 mm 0.00 in0.0 mm 0.26 in6.6 mm
05:45 AM 51.7°F10.9°C 50.3°F10.2°C 95% Calm Calm 1.0 mph1.6 kmh 29.60 in1002.4 mb 0.02 in0.5 mm 0.00 in0.0 mm 0.26 in6.6 mm
06:00 AM 51.8°F11.0°C 50.4°F10.2°C 95% Calm Calm -- 29.60 in1002.4 mb 0.02 in0.5 mm 0.00 in0.0 mm 0.27 in6.9 mm
06:15 AM 52.1°F11.2°C 50.7°F10.4°C 95% 1.0 mph SW1.6 kmh SW 4.0 mph6.4 kmh 29.61 in1002.7 mb 0.01 in0.3 mm 0.00 in0.0 mm 0.27 in6.9 mm
06:30 AM 52.6°F11.4°C 50.6°F10.3°C 93% 2.0 mph SW3.2 kmh SW 4.0 mph6.4 kmh 29.61 in1002.7 mb 0.01 in0.3 mm 0.00 in0.0 mm 0.27 in6.9 mm
06:45 AM 53.0°F11.7°C 50.7°F10.4°C 92% 1.0 mph SW1.6 kmh SW 4.0 mph6.4 kmh 29.61 in1002.7 mb 0.00 in0.0 mm 0.00 in0.0 mm 0.27 in6.9 mm
07:00 AM 53.2°F11.8°C 50.6°F10.3°C 91% 1.0 mph SSW1.6 kmh SSW 2.0 mph3.2 kmh 29.62 in1003.0 mb 0.00 in0.0 mm 0.00 in0.0 mm 0.27 in6.9 mm
07:15 AM 53.5°F11.9°C 50.9°F10.5°C 91% 1.0 mph S1.6 kmh S 4.0 mph6.4 kmh 29.62 in1003.0 mb 0.00 in0.0 mm 0.00 in0.0 mm 0.27 in6.9 mm
07:30 AM 53.7°F12.1°C 51.1°F10.6°C 91% 2.0 mph SSW3.2 kmh SSW 8.0 mph12.9 kmh 29.62 in1003.0 mb 0.00 in0.0 mm 0.00 in0.0 mm 0.27 in6.9 mm
07:45 AM 53.9°F12.2°C 51.3°F10.7°C 91% 3.0 mph S4.8 kmh S 7.0 mph11.3 kmh 29.62 in1003.0 mb 0.00 in0.0 mm 0.00 in0.0 mm 0.27 in6.9 mm
08:00 AM 54.0°F12.2°C 51.1°F10.6°C 90% 4.0 mph S6.4 kmh S 9.0 mph14.5 kmh 29.63 in1003.4 mb 0.00 in0.0 mm 0.00 in0.0 mm 0.27 in6.9 mm
08:15 AM 54.2°F12.3°C 51.0°F10.6°C 89% 4.0 mph SSW6.4 kmh SSW 12.0 mph19.3 kmh 29.63 in1003.4 mb 0.00 in0.0 mm 0.00 in0.0 mm 0.27 in6.9 mm
08:30 AM 54.3°F12.4°C 51.1°F10.6°C 89% 4.0 mph S6.4 kmh S 9.0 mph14.5 kmh 29.63 in1003.4 mb 0.00 in0.0 mm 0.00 in0.0 mm 0.27 in6.9 mm
08:45 AM 54.5°F12.5°C 51.3°F10.7°C 89% 4.0 mph S6.4 kmh S 9.0 mph14.5 kmh 29.63 in1003.4 mb 0.00 in0.0 mm 0.00 in0.0 mm 0.27 in6.9 mm
09:00 AM 54.6°F12.6°C 51.1°F10.6°C 88% 5.0 mph S8.0 kmh S 10.0 mph16.1 kmh 29.63 in1003.4 mb 0.00 in0.0 mm 0.00 in0.0 mm 0.27 in6.9 mm
09:15 AM 54.8°F12.7°C 51.6°F10.9°C 89% 5.0 mph S8.0 kmh S 9.0 mph14.5 kmh 29.63 in1003.4 mb 0.00 in0.0 mm 0.00 in0.0 mm 0.27 in6.9 mm
09:30 AM 55.0°F12.8°C 51.8°F11.0°C 89% 4.0 mph S6.4 kmh S 8.0 mph12.9 kmh 29.63 in1003.4 mb 0.00 in0.0 mm 0.00 in0.0 mm 0.27 in6.9 mm
09:45 AM 55.1°F12.8°C 51.9°F11.1°C 89% 5.0 mph S8.0 kmh S 9.0 mph14.5 kmh 29.63 in1003.4 mb 0.00 in0.0 mm 0.00 in0.0 mm 0.27 in6.9 mm
10:00 AM 55.2°F12.9°C 52.0°F11.1°C 89% 4.0 mph S6.4 kmh S 9.0 mph14.5 kmh 29.63 in1003.4 mb 0.00 in0.0 mm 0.00 in0.0 mm 0.27 in6.9 mm
10:15 AM 55.4°F13.0°C 51.9°F11.1°C 88% 5.0 mph S8.0 kmh S 12.0 mph19.3 kmh 29.64 in1003.7 mb 0.00 in0.0 mm 0.00 in0.0 mm 0.27 in6.9 mm
10:30 AM 55.5°F13.1°C 51.7°F10.9°C 87% 5.0 mph S8.0 kmh S 12.0 mph19.3 kmh 29.64 in1003.7 mb 0.00 in0.0 mm 0.00 in0.0 mm 0.27 in6.9 mm
10:45 AM 55.5°F13.1°C 51.4°F10.8°C 86% 6.0 mph SSW9.7 kmh SSW 15.0 mph24.1 kmh 29.64 in1003.7 mb 0.00 in0.0 mm 0.00 in0.0 mm 0.27 in6.9 mm
11:00 AM 55.7°F13.2°C 51.9°F11.1°C 87% 5.0 mph SW8.0 kmh SW 14.0 mph22.5 kmh 29.64 in1003.7 mb 0.00 in0.0 mm 0.00 in0.0 mm 0.27 in6.9 mm
11:15 AM 56.0°F13.3°C 52.2°F11.2°C 87% 4.0 mph SSW6.4 kmh SSW 11.0 mph17.7 kmh 29.64 in1003.7 mb 0.00 in0.0 mm 0.00 in0.0 mm 0.27 in6.9 mm
11:30 AM 56.4°F13.6°C 52.3°F11.3°C 86% 4.0 mph SSW6.4 kmh SSW 12.0 mph19.3 kmh 29.64 in1003.7 mb 0.00 in0.0 mm 0.00 in0.0 mm 0.27 in6.9 mm
11:45 AM 56.3°F13.5°C 51.5°F10.8°C 84% 3.0 mph WSW4.8 kmh WSW 10.0 mph16.1 kmh 29.64 in1003.7 mb 0.00 in0.0 mm 0.00 in0.0 mm 0.27 in6.9 mm
12:00 PM 56.1°F13.4°C 50.3°F10.2°C 81% 3.0 mph WSW4.8 kmh WSW 12.0 mph19.3 kmh 29.64 in1003.7 mb 0.00 in0.0 mm 0.00 in0.0 mm 0.27 in6.9 mm
12:15 PM 54.8°F12.7°C 50.4°F10.2°C 85% 4.0 mph W6.4 kmh W 11.0 mph17.7 kmh 29.64 in1003.7 mb 0.00 in0.0 mm 0.00 in0.0 mm 0.27 in6.9 mm
12:30 PM 54.0°F12.2°C 50.2°F10.1°C 87% 3.0 mph W4.8 kmh W 7.0 mph11.3 kmh 29.64 in1003.7 mb 0.00 in0.0 mm 0.00 in0.0 mm 0.27 in6.9 mm
12:45 PM 54.0°F12.2°C 50.2°F10.1°C 87% 3.0 mph W4.8 kmh W 10.0 mph16.1 kmh 29.64 in1003.7 mb 0.00 in0.0 mm 0.00 in0.0 mm 0.27 in6.9 mm
01:00 PM 54.7°F12.6°C 50.3°F10.2°C 85% 4.0 mph W6.4 kmh W 11.0 mph17.7 kmh 29.64 in1003.7 mb 0.00 in0.0 mm 0.00 in0.0 mm 0.27 in6.9 mm
01:15 PM 55.3°F12.9°C 50.5°F10.3°C 84% 3.0 mph NW4.8 kmh NW 11.0 mph17.7 kmh 29.65 in1004.1 mb 0.00 in0.0 mm 0.00 in0.0 mm 0.27 in6.9 mm
01:30 PM 54.9°F12.7°C 50.5°F10.3°C 85% 2.0 mph WNW3.2 kmh WNW 9.0 mph14.5 kmh 29.66 in1004.4 mb 0.00 in0.0 mm 0.00 in0.0 mm 0.27 in6.9 mm
01:45 PM 53.9°F12.2°C 49.8°F9.9°C 86% 4.0 mph WNW6.4 kmh WNW 12.0 mph19.3 kmh 29.66 in1004.4 mb 0.00 in0.0 mm 0.00 in0.0 mm 0.27 in6.9 mm
02:00 PM 53.2°F11.8°C 48.8°F9.3°C 85% 5.0 mph WNW8.0 kmh WNW 12.0 mph19.3 kmh 29.67 in1004.7 mb 0.00 in0.0 mm 0.00 in0.0 mm 0.27 in6.9 mm
02:15 PM 52.3°F11.3°C 47.9°F8.8°C 85% 5.0 mph W8.0 kmh W 15.0 mph24.1 kmh 29.68 in1005.1 mb 0.00 in0.0 mm 0.00 in0.0 mm 0.27 in6.9 mm
02:30 PM 51.6°F10.9°C 46.9°F8.3°C 84% 5.0 mph WNW8.0 kmh WNW 15.0 mph24.1 kmh 29.69 in1005.4 mb 0.00 in0.0 mm 0.00 in0.0 mm 0.27 in6.9 mm
02:45 PM 51.3°F10.7°C 46.6°F8.1°C 84% 5.0 mph WNW8.0 kmh WNW 15.0 mph24.1 kmh 29.70 in1005.8 mb 0.00 in0.0 mm 0.00 in0.0 mm 0.27 in6.9 mm
03:00 PM 51.4°F10.8°C 46.4°F8.0°C 83% 4.0 mph WNW6.4 kmh WNW 12.0 mph19.3 kmh 29.70 in1005.8 mb 0.00 in0.0 mm 0.00 in0.0 mm 0.27 in6.9 mm
03:15 PM 51.8°F11.0°C 46.5°F8.1°C 82% 3.0 mph W4.8 kmh W 13.0 mph20.9 kmh 29.71 in1006.1 mb 0.00 in0.0 mm 0.00 in0.0 mm 0.27 in6.9 mm
03:30 PM 51.8°F11.0°C 46.2°F7.9°C 81% 4.0 mph W6.4 kmh W 11.0 mph17.7 kmh 29.71 in1006.1 mb 0.00 in0.0 mm 0.00 in0.0 mm 0.27 in6.9 mm
03:45 PM 51.0°F10.6°C 45.0°F7.2°C 80% 4.0 mph W6.4 kmh W 11.0 mph17.7 kmh 29.72 in1006.4 mb 0.00 in0.0 mm 0.00 in0.0 mm 0.27 in6.9 mm
04:00 PM 50.9°F10.5°C 45.3°F7.4°C 81% 4.0 mph W6.4 kmh W 9.0 mph14.5 kmh 29.73 in1006.8 mb 0.00 in0.0 mm 0.00 in0.0 mm 0.27 in6.9 mm
04:15 PM 51.0°F10.6°C 45.0°F7.2°C 80% 2.0 mph W3.2 kmh W 10.0 mph16.1 kmh 29.74 in1007.1 mb 0.00 in0.0 mm 0.00 in0.0 mm 0.27 in6.9 mm
04:30 PM 50.1°F10.1°C 44.8°F7.1°C 82% 1.0 mph WNW1.6 kmh WNW 6.0 mph9.7 kmh 29.75 in1007.5 mb 0.00 in0.0 mm 0.00 in0.0 mm 0.27 in6.9 mm
04:45 PM 49.5°F9.7°C 44.6°F7.0°C 83% 2.0 mph W3.2 kmh W 5.0 mph8.0 kmh 29.75 in1007.5 mb 0.00 in0.0 mm 0.00 in0.0 mm 0.27 in6.9 mm
05:00 PM 48.8°F9.3°C 44.5°F6.9°C 85% 1.0 mph NW1.6 kmh NW 4.0 mph6.4 kmh 29.76 in1007.8 mb 0.00 in0.0 mm 0.00 in0.0 mm 0.27 in6.9 mm
05:15 PM 48.7°F9.3°C 44.7°F7.1°C 86% 1.0 mph WNW1.6 kmh WNW 3.0 mph4.8 kmh 29.77 in1008.1 mb 0.00 in0.0 mm 0.00 in0.0 mm 0.27 in6.9 mm
05:30 PM 48.7°F9.3°C 44.4°F6.9°C 85% 1.0 mph WNW1.6 kmh WNW 5.0 mph8.0 kmh 29.78 in1008.5 mb 0.00 in0.0 mm 0.00 in0.0 mm 0.27 in6.9 mm
05:45 PM 48.6°F9.2°C 44.3°F6.8°C 85% 1.0 mph W1.6 kmh W 4.0 mph6.4 kmh 29.79 in1008.8 mb 0.00 in0.0 mm 0.00 in0.0 mm 0.27 in6.9 mm
06:00 PM 48.4°F9.1°C 44.4°F6.9°C 86% 1.0 mph W1.6 kmh W 6.0 mph9.7 kmh 29.80 in1009.1 mb 0.00 in0.0 mm 0.00 in0.0 mm 0.27 in6.9 mm
06:15 PM 48.0°F8.9°C 44.3°F6.8°C 87% 1.0 mph W1.6 kmh W 4.0 mph6.4 kmh 29.81 in1009.5 mb 0.00 in0.0 mm 0.00 in0.0 mm 0.27 in6.9 mm
06:30 PM 47.5°F8.6°C 43.8°F6.6°C 87% 1.0 mph W1.6 kmh W 3.0 mph4.8 kmh 29.82 in1009.8 mb 0.00 in0.0 mm 0.00 in0.0 mm 0.27 in6.9 mm
06:45 PM 47.3°F8.5°C 43.6°F6.4°C 87% 1.0 mph WSW1.6 kmh WSW 3.0 mph4.8 kmh 29.83 in1010.2 mb 0.00 in0.0 mm 0.00 in0.0 mm 0.27 in6.9 mm
07:00 PM 46.9°F8.3°C 43.5°F6.4°C 88% 1.0 mph W1.6 kmh W 3.0 mph4.8 kmh 29.84 in1010.5 mb 0.00 in0.0 mm 0.00 in0.0 mm 0.27 in6.9 mm
07:15 PM 46.4°F8.0°C 43.3°F6.3°C 89% Calm Calm 2.0 mph3.2 kmh 29.84 in1010.5 mb 0.00 in0.0 mm 0.00 in0.0 mm 0.27 in6.9 mm
07:30 PM 45.8°F7.7°C 43.0°F6.1°C 90% Calm Calm 2.0 mph3.2 kmh 29.85 in1010.8 mb 0.00 in0.0 mm 0.00 in0.0 mm 0.27 in6.9 mm
07:45 PM 45.3°F7.4°C 42.8°F6.0°C 91% Calm Calm 1.0 mph1.6 kmh 29.86 in1011.2 mb 0.00 in0.0 mm 0.00 in0.0 mm 0.27 in6.9 mm
08:00 PM 44.8°F7.1°C 42.3°F5.7°C 91% Calm Calm 2.0 mph3.2 kmh 29.87 in1011.5 mb 0.00 in0.0 mm 0.00 in0.0 mm 0.27 in6.9 mm
08:15 PM 44.5°F6.9°C 42.0°F5.6°C 91% 1.0 mph WSW1.6 kmh WSW 3.0 mph4.8 kmh 29.88 in1011.9 mb 0.00 in0.0 mm 0.00 in0.0 mm 0.27 in6.9 mm
08:30 PM 44.3°F6.8°C 41.8°F5.4°C 91% Calm Calm 2.0 mph3.2 kmh 29.88 in1011.9 mb 0.00 in0.0 mm 0.00 in0.0 mm 0.27 in6.9 mm
08:45 PM 43.7°F6.5°C 41.2°F5.1°C 91% Calm Calm 2.0 mph3.2 kmh 29.89 in1012.2 mb 0.00 in0.0 mm 0.00 in0.0 mm 0.27 in6.9 mm
09:00 PM 43.0°F6.1°C 40.8°F4.9°C 92% Calm Calm 1.0 mph1.6 kmh 29.89 in1012.2 mb 0.00 in0.0 mm 0.00 in0.0 mm 0.27 in6.9 mm
09:15 PM 42.6°F5.9°C 40.4°F4.7°C 92% Calm Calm 1.0 mph1.6 kmh 29.90 in1012.5 mb 0.00 in0.0 mm 0.00 in0.0 mm 0.27 in6.9 mm
09:30 PM 42.2°F5.7°C 40.0°F4.4°C 92% Calm Calm 1.0 mph1.6 kmh 29.91 in1012.9 mb 0.00 in0.0 mm 0.00 in0.0 mm 0.27 in6.9 mm
09:45 PM 41.9°F5.5°C 39.7°F4.3°C 92% Calm Calm 1.0 mph1.6 kmh 29.91 in1012.9 mb 0.00 in0.0 mm 0.00 in0.0 mm 0.27 in6.9 mm
10:00 PM 41.6°F5.3°C 39.2°F4.0°C 91% Calm Calm 2.0 mph3.2 kmh 29.92 in1013.2 mb 0.00 in0.0 mm 0.00 in0.0 mm 0.27 in6.9 mm
10:15 PM 41.8°F5.4°C 39.1°F3.9°C 90% 1.0 mph NW1.6 kmh NW 3.0 mph4.8 kmh 29.92 in1013.2 mb 0.00 in0.0 mm 0.00 in0.0 mm 0.27 in6.9 mm
10:30 PM 41.8°F5.4°C 38.5°F3.6°C 88% Calm Calm 3.0 mph4.8 kmh 29.93 in1013.5 mb 0.00 in0.0 mm 0.00 in0.0 mm 0.27 in6.9 mm
10:45 PM 41.9°F5.5°C 38.0°F3.3°C 86% 1.0 mph NW1.6 kmh NW 2.0 mph3.2 kmh 29.93 in1013.5 mb 0.00 in0.0 mm 0.00 in0.0 mm 0.27 in6.9 mm
11:00 PM 42.0°F5.6°C 37.8°F3.2°C 85% 1.0 mph NW1.6 kmh NW 3.0 mph4.8 kmh 29.94 in1013.9 mb 0.00 in0.0 mm 0.00 in0.0 mm 0.27 in6.9 mm
11:15 PM 42.0°F5.6°C 37.5°F3.1°C 84% 1.0 mph NW1.6 kmh NW 4.0 mph6.4 kmh 29.94 in1013.9 mb 0.00 in0.0 mm 0.00 in0.0 mm 0.27 in6.9 mm
11:30 PM 42.1°F5.6°C 37.0°F2.8°C 82% 1.0 mph NW1.6 kmh NW 4.0 mph6.4 kmh 29.95 in1014.2 mb 0.00 in0.0 mm 0.00 in0.0 mm 0.27 in6.9 mm
11:45 PM 41.9°F5.5°C 36.8°F2.7°C 82% 1.0 mph NW1.6 kmh NW 4.0 mph6.4 kmh 29.96 in1014.6 mb 0.00 in0.0 mm 0.00 in0.0 mm 0.27 in6.9 mm